createdAt,value
2019-01-08T00:00:58.487Z,103231.88
2019-01-08T00:03:27.633Z,103220.99
2019-01-08T00:05:57.708Z,103232.94
2019-01-08T00:08:27.409Z,103221.20
2019-01-08T00:10:56.555Z,103216.28
2019-01-08T00:13:26.098Z,103223.08
2019-01-08T00:15:55.519Z,103222.05
2019-01-08T00:18:26.769Z,103226.43
2019-01-08T00:20:55.916Z,103235.44
2019-01-08T00:23:28.168Z,103227.28
2019-01-08T00:25:57.634Z,103221.32
2019-01-08T00:28:26.945Z,103228.72
2019-01-08T00:30:56.140Z,103231.55
2019-01-08T00:33:25.232Z,103233.42
2019-01-08T00:35:54.410Z,103232.06
2019-01-08T00:38:23.971Z,103238.87
2019-01-08T00:40:53.153Z,103225.27
2019-01-08T00:43:22.386Z,103240.23
2019-01-08T00:45:51.653Z,103241.59
2019-01-08T00:48:23.775Z,103230.70
2019-01-08T00:50:52.872Z,103235.41
2019-01-08T00:53:21.969Z,103236.77
2019-01-08T00:55:51.118Z,103226.22
2019-01-08T00:58:20.206Z,103232.28
2019-01-08T01:00:49.441Z,103226.52
2019-01-08T01:03:19.202Z,103222.66
2019-01-08T01:05:48.284Z,103217.43
2019-01-08T01:08:18.192Z,103212.39
2019-01-08T01:10:47.307Z,103218.78
2019-01-08T01:13:17.818Z,103220.69
2019-01-08T01:15:48.376Z,103229.60
2019-01-08T01:35:34.390Z,103247.03
2019-01-08T01:38:03.548Z,103247.25
2019-01-08T01:40:33.447Z,103241.18
2019-01-08T01:43:02.886Z,103237.31
2019-01-08T01:45:32.005Z,103244.53
2019-01-08T01:48:01.173Z,103240.85
2019-01-08T01:50:31.089Z,103251.94
2019-01-08T01:53:00.200Z,103244.93
2019-01-08T01:55:29.318Z,103249.43
2019-01-08T01:57:58.422Z,103249.81
2019-01-08T02:00:27.593Z,103247.31
2019-01-08T02:02:56.927Z,103251.30
2019-01-08T02:05:26.242Z,103257.55
2019-01-08T02:08:02.085Z,103261.10
2019-01-08T02:10:31.439Z,103260.80
2019-01-08T02:13:00.578Z,103253.67
2019-01-08T02:15:30.597Z,103256.91
2019-01-08T02:17:59.844Z,103257.84
2019-01-08T02:20:29.200Z,103249.09
2019-01-08T02:22:58.256Z,103242.39
2019-01-08T02:25:27.402Z,103242.39
2019-01-08T02:27:56.508Z,103235.47
2019-01-08T02:30:25.733Z,103235.69
2019-01-08T02:32:54.949Z,103239.97
2019-01-08T02:35:24.130Z,103242.89
2019-01-08T02:37:53.284Z,103243.10
2019-01-08T02:40:22.966Z,103246.54
2019-01-08T02:42:52.122Z,103254.56
2019-01-08T02:45:21.222Z,103253.92
2019-01-08T02:47:50.460Z,103250.06
2019-01-08T02:50:19.618Z,103251.29
2019-01-08T02:52:48.761Z,103249.33
2019-01-08T02:55:17.946Z,103253.27
2019-01-08T02:57:47.347Z,103246.70
2019-01-08T03:00:16.545Z,103247.42
2019-01-08T03:02:45.687Z,103243.02
2019-01-08T03:05:14.824Z,103241.86
2019-01-08T03:07:43.960Z,103241.77
2019-01-08T03:10:13.189Z,103253.34
2019-01-08T03:12:42.344Z,103250.50
2019-01-08T03:15:11.553Z,103256.44
2019-01-08T03:17:40.697Z,103252.58
2019-01-08T03:20:09.793Z,103252.06
2019-01-08T03:22:38.909Z,103245.28
2019-01-08T03:25:08.096Z,103249.35
2019-01-08T03:27:37.234Z,103254.27
2019-01-08T03:30:06.765Z,103257.28
2019-01-08T03:32:35.873Z,103252.37
2019-01-08T03:35:05.316Z,103247.15
2019-01-08T03:37:34.486Z,103240.91
2019-01-08T03:40:03.626Z,103240.91
2019-01-08T03:42:33.608Z,103238.70
2019-01-08T03:45:02.747Z,103240.06
2019-01-08T03:47:31.817Z,103245.28
2019-01-08T03:50:01.039Z,103243.92
2019-01-08T03:52:30.414Z,103242.56
2019-01-08T03:54:59.524Z,103250.91
2019-01-08T03:57:28.605Z,103254.14
2019-01-08T03:59:57.652Z,103246.51
2019-01-08T04:02:26.723Z,103244.34
2019-01-08T04:04:55.842Z,103251.43
2019-01-08T04:07:25.115Z,103252.78
2019-01-08T04:09:54.348Z,103247.36
2019-01-08T04:12:23.647Z,103243.80
2019-01-08T04:14:52.811Z,103248.08
2019-01-08T04:17:23.318Z,103244.00
2019-01-08T04:19:52.472Z,103235.86
2019-01-08T04:22:21.712Z,103233.48
2019-01-08T04:24:50.755Z,103237.77
2019-01-08T04:27:19.871Z,103242.01
2019-01-08T04:29:50.706Z,103242.22
2019-01-08T04:32:18.239Z,103240.02
2019-01-08T04:34:49.769Z,103238.35
2019-01-08T04:37:18.890Z,103231.56
2019-01-08T04:39:48.101Z,103229.57
2019-01-08T04:42:17.311Z,103234.70
2019-01-08T04:44:46.403Z,103235.41
2019-01-08T04:47:15.443Z,103236.13
2019-01-08T04:49:44.807Z,103234.98
2019-01-08T04:52:13.944Z,103234.98
2019-01-08T04:54:43.256Z,103234.85
2019-01-08T04:57:12.337Z,103238.92
2019-01-08T04:59:41.443Z,103241.33
2019-01-08T05:02:10.555Z,103238.62
2019-01-08T05:04:39.633Z,103239.98
2019-01-08T05:07:08.829Z,103245.06
2019-01-08T05:09:38.051Z,103236.41
2019-01-08T05:12:07.325Z,103247.91
2019-01-08T05:14:36.479Z,103248.55
2019-01-08T05:17:06.498Z,103252.72
2019-01-08T05:19:35.600Z,103243.55
2019-01-08T05:22:04.784Z,103237.79
2019-01-08T05:24:33.966Z,103235.08
2019-01-08T05:27:03.091Z,103236.26
2019-01-08T05:29:32.312Z,103239.06
2019-01-08T05:32:01.507Z,103230.93
2019-01-08T05:34:30.601Z,103235.00
2019-01-08T05:36:59.728Z,103232.63
2019-01-08T05:39:28.867Z,103237.30
2019-01-08T05:41:58.071Z,103240.34
2019-01-08T05:44:27.256Z,103232.84
2019-01-08T05:46:56.793Z,103233.69
2019-01-08T05:49:25.883Z,103241.83
2019-01-08T05:51:55.862Z,103220.94
2019-01-08T05:54:24.963Z,103218.22
2019-01-08T05:56:54.058Z,103224.80
2019-01-08T05:59:23.155Z,103227.00
2019-01-08T06:01:52.260Z,103231.92
2019-01-08T06:04:21.355Z,103222.52
2019-01-08T06:06:50.478Z,103213.02
2019-01-08T06:09:19.733Z,103211.66
2019-01-08T06:11:50.098Z,103211.66
2019-01-08T06:14:19.401Z,103208.84
2019-01-08T06:16:49.496Z,103212.41
2019-01-08T06:19:18.486Z,103209.48
2019-01-08T06:21:47.613Z,103206.23
2019-01-08T06:24:16.703Z,103209.28
2019-01-08T06:26:45.833Z,103205.51
2019-01-08T06:29:14.911Z,103208.56
2019-01-08T06:31:44.045Z,103212.63
2019-01-08T06:34:13.389Z,103209.70
2019-01-08T06:36:42.583Z,103212.72
2019-01-08T06:39:11.634Z,103223.06
2019-01-08T06:41:40.734Z,103227.14
2019-01-08T06:44:10.550Z,103232.57
2019-01-08T06:46:43.178Z,103226.63
2019-01-08T06:49:08.870Z,103226.12
2019-01-08T06:51:37.970Z,103235.62
2019-01-08T06:56:41.986Z,103234.56
2019-01-08T06:59:11.498Z,103242.70
2019-01-08T07:01:40.897Z,103241.05
2019-01-08T07:04:10.826Z,103236.98
2019-01-08T07:06:40.061Z,103226.84
2019-01-08T07:09:09.417Z,103238.51
2019-01-08T07:11:40.670Z,103247.50
2019-01-08T07:14:09.875Z,103247.20
2019-01-08T07:16:41.389Z,103245.42
2019-01-08T07:19:12.484Z,103247.83
2019-01-08T07:21:42.107Z,103247.08
2019-01-08T07:24:12.668Z,103247.42
2019-01-08T07:29:35.494Z,103250.13
2019-01-08T07:32:04.753Z,103254.50
2019-01-08T07:34:33.976Z,103257.22
2019-01-08T07:37:03.063Z,103251.28
2019-01-08T07:39:32.146Z,103249.08
2019-01-08T07:42:01.525Z,103251.08
2019-01-08T07:44:30.766Z,103253.15
2019-01-08T07:47:00.051Z,103260.27
2019-01-08T07:49:29.114Z,103259.85
2019-01-08T07:51:58.238Z,103261.21
2019-01-08T07:54:27.323Z,103258.83
2019-01-08T07:56:56.467Z,103265.41
2019-01-08T07:59:29.970Z,103272.71
2019-01-08T08:01:59.023Z,103275.63
2019-01-08T08:04:28.670Z,103279.70
2019-01-08T08:06:57.727Z,103274.48
2019-01-08T08:09:28.329Z,103279.91
2019-01-08T08:11:58.243Z,103285.64
2019-01-08T08:14:27.309Z,103289.72
2019-01-08T08:16:56.665Z,103286.49
2019-01-08T08:19:26.734Z,103291.41
2019-01-08T08:21:56.001Z,103297.34
2019-01-08T08:24:27.282Z,103298.80
2019-01-08T08:26:56.543Z,103302.36
2019-01-08T08:29:26.673Z,103304.57
2019-01-08T08:31:56.069Z,103303.85
2019-01-08T08:34:25.249Z,103303.31
2019-01-08T08:36:54.391Z,103300.29
2019-01-08T08:39:23.669Z,103301.64
2019-01-08T08:41:53.128Z,103293.70
2019-01-08T08:44:23.074Z,103298.80
2019-01-08T08:46:52.236Z,103297.56
2019-01-08T08:49:21.265Z,103295.94
2019-01-08T08:51:51.212Z,103289.78
2019-01-08T08:54:20.345Z,103292.06
2019-01-08T08:56:49.512Z,103298.62
2019-01-08T08:59:18.899Z,103291.40
2019-01-08T09:01:48.379Z,103300.64
2019-01-08T09:04:17.571Z,103306.34
2019-01-08T09:06:46.748Z,103303.02
2019-01-08T09:09:15.948Z,103308.83
2019-01-08T09:11:45.260Z,103312.89
2019-01-08T09:14:14.468Z,103313.23
2019-01-08T09:16:43.544Z,103312.52
2019-01-08T09:19:12.978Z,103314.31
2019-01-08T09:21:42.855Z,103319.84
2019-01-08T09:24:11.952Z,103336.89
2019-01-08T09:26:42.003Z,103326.98
2019-01-08T09:29:11.128Z,103337.26
2019-01-08T09:31:40.224Z,103324.13
2019-01-08T09:34:10.549Z,103334.36
2019-01-08T09:36:39.745Z,103329.88
2019-01-08T09:39:10.136Z,103325.63
2019-01-08T09:41:39.740Z,103328.14
2019-01-08T09:44:08.993Z,103323.35
2019-01-08T09:46:38.115Z,103326.06
2019-01-08T09:49:07.243Z,103330.65
2019-01-08T09:51:36.508Z,103333.16
2019-01-08T09:54:06.387Z,103344.35
2019-01-08T09:56:36.232Z,103341.22
2019-01-08T09:59:05.426Z,103336.09
2019-01-08T10:01:34.663Z,103331.64
2019-01-08T10:04:04.238Z,103332.25
2019-01-08T10:06:33.638Z,103326.95
2019-01-08T10:09:03.002Z,103332.51
2019-01-08T10:11:32.139Z,103324.36
2019-01-08T10:14:03.113Z,103338.87
2019-01-08T10:16:32.392Z,103343.80
2019-01-08T10:19:01.918Z,103334.94
2019-01-08T10:21:31.302Z,103330.66
2019-01-08T10:24:02.148Z,103311.43
2019-01-08T10:26:31.847Z,103319.70
2019-01-08T10:29:01.129Z,103324.38
2019-01-08T10:31:32.568Z,103316.06
2019-01-08T10:34:00.392Z,103323.79
2019-01-08T10:36:30.898Z,103332.23
2019-01-08T10:39:00.196Z,103331.73
2019-01-08T10:41:29.308Z,103339.88
2019-01-08T10:43:58.357Z,103342.93
2019-01-08T10:46:27.522Z,103354.09
2019-01-08T10:48:56.955Z,103358.48
2019-01-08T10:51:26.782Z,103353.89
2019-01-08T10:53:55.943Z,103350.16
2019-01-08T10:56:25.094Z,103343.45
2019-01-08T10:58:54.252Z,103343.79
2019-01-08T11:01:23.347Z,103351.73
2019-01-08T11:03:58.612Z,103337.09
2019-01-08T11:06:27.697Z,103332.08
2019-01-08T11:08:56.832Z,103331.36
2019-01-08T11:11:26.863Z,103333.36
2019-01-08T11:13:56.054Z,103330.22
2019-01-08T11:16:25.180Z,103312.89
2019-01-08T11:18:54.273Z,103310.80
2019-01-08T11:21:24.695Z,103310.38
2019-01-08T11:23:54.055Z,103318.11
2019-01-08T11:26:23.978Z,103310.08
2019-01-08T11:28:53.100Z,103303.41
2019-01-08T11:31:22.215Z,103306.22
2019-01-08T11:33:53.652Z,103320.23
2019-01-08T11:36:22.710Z,103309.36
2019-01-08T11:38:51.931Z,103307.78
2019-01-08T11:41:21.032Z,103314.37
2019-01-08T11:43:50.178Z,103322.01
2019-01-08T11:46:19.497Z,103327.23
2019-01-08T11:48:48.625Z,103330.59
2019-01-08T11:51:19.236Z,103332.58
2019-01-08T11:53:49.046Z,103320.13
2019-01-08T11:56:18.597Z,103315.33
2019-01-08T11:58:49.202Z,103309.38
2019-01-08T12:01:18.609Z,103310.02
2019-01-08T12:03:50.125Z,103307.96
2019-01-08T12:06:20.549Z,103311.31
2019-01-08T12:08:49.871Z,103309.41
2019-01-08T12:11:19.065Z,103315.69
2019-01-08T12:13:48.247Z,103314.11
2019-01-08T12:16:17.601Z,103317.25
2019-01-08T12:18:47.167Z,103309.73
2019-01-08T12:21:17.377Z,103310.36
2019-01-08T12:23:46.697Z,103302.50
2019-01-08T12:26:16.783Z,103300.63
2019-01-08T12:28:45.898Z,103286.81
2019-01-08T12:31:16.264Z,103283.70
2019-01-08T12:33:45.442Z,103287.34
2019-01-08T12:36:14.704Z,103277.39
2019-01-08T12:38:44.007Z,103276.23
2019-01-08T12:41:13.370Z,103270.91
2019-01-08T12:43:42.847Z,103267.75
2019-01-08T12:46:12.364Z,103258.64
2019-01-08T12:48:41.786Z,103261.26
2019-01-08T12:51:10.986Z,103266.92
2019-01-08T12:53:45.121Z,103262.12
2019-01-08T12:56:14.411Z,103265.98
2019-01-08T12:58:48.771Z,103272.91
2019-01-08T13:01:21.021Z,103265.88
2019-01-08T13:03:49.467Z,103256.80
2019-01-08T13:06:18.550Z,103253.45
2019-01-08T13:08:48.795Z,103256.68
2019-01-08T13:11:18.866Z,103265.39
2019-01-08T13:16:21.550Z,103262.23
2019-01-08T13:18:53.248Z,103257.13
2019-01-08T13:21:25.850Z,103259.08
2019-01-08T13:23:55.048Z,103247.26
2019-01-08T13:26:24.484Z,103251.34
2019-01-08T13:28:53.924Z,103245.17
2019-01-08T13:31:23.128Z,103244.95
2019-01-08T13:33:53.133Z,103246.13
2019-01-08T13:36:24.552Z,103233.34
2019-01-08T13:38:54.790Z,103240.14
2019-01-08T13:41:23.933Z,103234.07
2019-01-08T13:43:53.334Z,103227.08
2019-01-08T13:46:23.397Z,103231.89
2019-01-08T13:48:53.150Z,103229.17
2019-01-08T13:51:22.342Z,103222.48
2019-01-08T13:53:51.583Z,103232.71
2019-01-08T13:56:21.900Z,103225.51
2019-01-08T13:58:57.954Z,103226.77
2019-01-08T14:01:30.382Z,103231.77
2019-01-08T14:03:59.737Z,103231.77
2019-01-08T14:06:28.907Z,103229.78
2019-01-08T14:08:58.990Z,103229.88
2019-01-08T14:11:29.711Z,103234.40
2019-01-08T14:13:58.854Z,103220.91
2019-01-08T14:16:30.037Z,103233.80
2019-01-08T14:18:59.182Z,103224.05
2019-01-08T14:21:28.504Z,103221.98
2019-01-08T14:23:57.799Z,103223.22
2019-01-08T14:26:32.415Z,103221.45
2019-01-08T14:29:01.502Z,103227.02
2019-01-08T14:31:30.953Z,103216.33
2019-01-08T14:34:00.020Z,103222.16
2019-01-08T14:36:31.929Z,103222.27
2019-01-08T14:41:32.725Z,103216.64
2019-01-08T14:44:02.402Z,103217.25
2019-01-08T14:46:31.584Z,103214.11
2019-01-08T14:49:00.704Z,103206.39
2019-01-08T14:51:29.857Z,103206.81
2019-01-08T14:54:00.286Z,103197.48
2019-01-08T14:56:44.633Z,103194.98
2019-01-08T14:59:15.798Z,103190.28
2019-01-08T15:01:46.547Z,103191.34
2019-01-08T15:04:18.823Z,103187.48
2019-01-08T15:09:43.364Z,103182.56
2019-01-08T15:12:12.533Z,103180.16
2019-01-08T15:14:41.891Z,103181.31
2019-01-08T15:19:44.974Z,103179.37
2019-01-08T15:22:15.007Z,103165.29
2019-01-08T15:24:45.349Z,103175.01
2019-01-08T15:27:15.542Z,103178.95
2019-01-08T15:29:45.985Z,103178.33
2019-01-08T15:32:15.346Z,103182.91
2019-01-08T15:34:46.746Z,103193.47
2019-01-08T15:37:16.555Z,103201.91
2019-01-08T15:39:45.928Z,103197.12
2019-01-08T15:42:16.281Z,103204.88
2019-01-08T15:44:47.083Z,103200.89
2019-01-08T15:47:18.402Z,103201.73
2019-01-08T15:49:49.473Z,103200.68
2019-01-08T15:52:18.693Z,103200.68
2019-01-08T15:54:48.571Z,103193.59
2019-01-08T15:57:20.053Z,103195.16
2019-01-08T15:59:51.958Z,103188.80
2019-01-08T16:02:21.209Z,103190.45
2019-01-08T16:04:50.753Z,103205.56
2019-01-08T16:07:20.006Z,103204.33
2019-01-08T16:09:50.072Z,103209.97
2019-01-08T16:12:19.501Z,103211.83
2019-01-08T16:14:48.711Z,103207.64
2019-01-08T16:17:19.412Z,103203.27
2019-01-08T16:19:49.680Z,103201.48
2019-01-08T16:22:19.154Z,103207.84
2019-01-08T16:24:49.149Z,103206.87
2019-01-08T16:27:18.557Z,103207.49
2019-01-08T16:29:47.899Z,103201.12
2019-01-08T16:32:17.052Z,103209.14
2019-01-08T16:34:46.255Z,103206.63
2019-01-08T16:37:16.335Z,103202.44
2019-01-08T16:39:45.533Z,103209.30
2019-01-08T16:42:15.406Z,103211.07
2019-01-08T16:44:49.360Z,103210.34
2019-01-08T16:47:19.129Z,103212.28
2019-01-08T16:49:52.461Z,103205.38
2019-01-08T16:52:25.905Z,103212.56
2019-01-08T16:54:56.133Z,103220.19
2019-01-08T16:57:30.216Z,103218.20
2019-01-08T17:00:00.005Z,103214.84
2019-01-08T17:02:29.178Z,103223.19
2019-01-08T17:04:59.577Z,103218.69
2019-01-08T17:07:28.692Z,103220.76
2019-01-08T17:09:58.040Z,103223.16
2019-01-08T17:12:29.163Z,103223.34
2019-01-08T17:14:59.362Z,103216.56
2019-01-08T17:17:28.552Z,103206.25
2019-01-08T17:19:59.291Z,103199.47
2019-01-08T17:22:31.170Z,103197.78
2019-01-08T17:25:10.264Z,103193.41
2019-01-08T17:27:39.445Z,103188.36
2019-01-08T17:30:11.271Z,103195.89
2019-01-08T17:32:40.557Z,103196.91
2019-01-08T17:35:09.733Z,103194.61
2019-01-08T17:37:39.114Z,103197.83
2019-01-08T17:40:09.538Z,103200.95
2019-01-08T17:42:39.905Z,103201.97
2019-01-08T17:45:10.294Z,103200.82
2019-01-08T17:47:39.309Z,103206.75
2019-01-08T17:50:09.633Z,103202.89
2019-01-08T17:52:39.066Z,103210.52
2019-01-08T17:55:08.231Z,103210.72
2019-01-08T17:57:37.329Z,103199.87
2019-01-08T18:00:08.887Z,103206.01
2019-01-08T18:02:38.135Z,103208.41
2019-01-08T18:05:07.492Z,103213.19
2019-01-08T18:07:36.731Z,103221.50
2019-01-08T18:10:07.971Z,103213.91
2019-01-08T18:12:37.742Z,103224.55
2019-01-08T18:15:06.840Z,103231.12
2019-01-08T18:17:37.140Z,103228.75
2019-01-08T18:20:06.652Z,103232.06
2019-01-08T18:22:35.952Z,103227.29
2019-01-08T18:25:05.677Z,103222.20
2019-01-08T18:27:34.747Z,103221.16
2019-01-08T18:30:04.056Z,103219.49
2019-01-08T18:32:33.579Z,103225.29
2019-01-08T18:35:02.598Z,103224.14
2019-01-08T18:37:31.771Z,103226.03
2019-01-08T18:40:00.856Z,103225.91
2019-01-08T18:42:30.294Z,103231.90
2019-01-08T18:45:00.478Z,103230.72
2019-01-08T18:47:30.486Z,103228.72
2019-01-08T18:50:01.848Z,103236.41
2019-01-08T18:52:31.887Z,103237.66
2019-01-08T18:55:01.227Z,103240.94
2019-01-08T18:57:32.885Z,103243.41
2019-01-08T19:00:02.050Z,103233.48
2019-01-08T19:02:31.310Z,103233.34
2019-01-08T19:05:00.593Z,103240.86
2019-01-08T19:07:29.619Z,103234.45
2019-01-08T19:10:05.579Z,103236.22
2019-01-08T19:12:34.658Z,103230.34
2019-01-08T19:15:05.971Z,103239.05
2019-01-08T19:17:42.517Z,103240.49
2019-01-08T19:20:13.824Z,103236.80
2019-01-08T19:22:44.088Z,103251.70
2019-01-08T19:25:16.278Z,103247.52
2019-01-08T19:27:46.195Z,103255.76
2019-01-08T19:30:15.947Z,103254.03
2019-01-08T19:32:46.490Z,103259.05
2019-01-08T19:35:15.655Z,103263.36
2019-01-08T19:37:44.791Z,103261.61
2019-01-08T19:40:13.843Z,103273.44
2019-01-08T19:42:44.051Z,103275.89
2019-01-08T19:45:13.205Z,103280.05
2019-01-08T19:47:42.335Z,103285.92
2019-01-08T19:50:11.489Z,103280.33
2019-01-08T19:52:41.427Z,103283.86
2019-01-08T19:55:10.847Z,103285.02
2019-01-08T19:57:39.975Z,103297.55
2019-01-08T20:00:11.283Z,103291.73
2019-01-08T20:02:40.665Z,103284.45
2019-01-08T20:05:09.996Z,103296.30
2019-01-08T20:07:39.946Z,103293.79
2019-01-08T20:10:09.119Z,103282.00
2019-01-08T20:12:38.329Z,103282.40
2019-01-08T20:15:10.509Z,103282.77
2019-01-08T20:17:39.748Z,103277.75
2019-01-08T20:20:11.464Z,103275.03
2019-01-08T20:22:41.654Z,103273.55
2019-01-08T20:25:11.104Z,103269.67
2019-01-08T20:27:40.174Z,103264.66
2019-01-08T20:30:10.715Z,103277.87
2019-01-08T20:32:40.598Z,103275.70
2019-01-08T20:35:10.278Z,103276.20
2019-01-08T20:37:39.133Z,103277.25
2019-01-08T20:40:10.257Z,103277.63
2019-01-08T20:42:39.318Z,103280.73
2019-01-08T20:45:09.198Z,103283.49
2019-01-08T20:47:39.226Z,103288.27
2019-01-08T20:50:08.382Z,103285.95
2019-01-08T20:55:10.893Z,103295.94
2019-01-08T20:57:41.633Z,103295.43
2019-01-08T21:00:15.024Z,103292.52
2019-01-08T21:02:46.181Z,103295.57
2019-01-08T21:05:19.268Z,103292.32
2019-01-08T21:07:46.294Z,103294.33
2019-01-08T21:10:15.961Z,103300.90
2019-01-08T21:12:45.091Z,103297.69
2019-01-08T21:15:14.213Z,103295.28
2019-01-08T21:17:43.263Z,103300.20
2019-01-08T21:20:12.444Z,103292.91
2019-01-08T21:22:41.479Z,103287.70
2019-01-08T21:25:10.682Z,103286.20
2019-01-08T21:27:39.979Z,103282.03
2019-01-08T21:30:09.355Z,103284.59
2019-01-08T21:32:40.278Z,103283.64
2019-01-08T21:35:09.655Z,103286.00
2019-01-08T21:37:39.385Z,103283.49
2019-01-08T21:40:08.977Z,103280.64
2019-01-08T21:42:38.415Z,103281.48
2019-01-08T21:45:08.360Z,103284.70
2019-01-08T21:47:37.589Z,103286.06
2019-01-08T21:50:07.366Z,103289.62
2019-01-08T21:52:36.541Z,103289.81
2019-01-08T21:55:06.661Z,103286.45
2019-01-08T21:57:35.807Z,103285.61
2019-01-08T22:00:05.698Z,103283.80
2019-01-08T22:02:35.113Z,103285.55
2019-01-08T22:05:04.330Z,103287.10
2019-01-08T22:07:33.492Z,103281.55
2019-01-08T22:10:02.598Z,103280.58
2019-01-08T22:12:32.735Z,103288.05
2019-01-08T22:15:01.878Z,103277.42
2019-01-08T22:17:30.919Z,103277.27
2019-01-08T22:20:00.268Z,103285.39
2019-01-08T22:22:29.327Z,103279.67
2019-01-08T22:24:58.412Z,103289.85
2019-01-08T22:27:28.598Z,103290.86
2019-01-08T22:29:58.878Z,103300.87
2019-01-08T22:32:28.099Z,103292.95
2019-01-08T22:35:01.966Z,103290.41
2019-01-08T22:37:26.505Z,103293.30
2019-01-08T22:39:55.615Z,103292.34
2019-01-08T22:42:24.949Z,103298.66
2019-01-08T22:44:54.035Z,103298.20
2019-01-08T22:47:23.403Z,103291.81
2019-01-08T22:49:52.548Z,103301.30
2019-01-08T22:52:21.696Z,103305.52
2019-01-08T22:54:50.822Z,103304.35
2019-01-08T22:57:20.091Z,103302.23
2019-01-08T22:59:49.305Z,103302.42
2019-01-08T23:02:19.306Z,103308.53
2019-01-08T23:04:48.624Z,103301.11
2019-01-08T23:07:18.038Z,103295.05
2019-01-08T23:09:47.339Z,103303.16
2019-01-08T23:12:16.503Z,103298.06
2019-01-08T23:14:45.599Z,103306.11
2019-01-08T23:17:20.902Z,103305.95
2019-01-08T23:19:49.972Z,103307.97
2019-01-08T23:22:19.179Z,103307.46
2019-01-08T23:24:48.271Z,103301.20
2019-01-08T23:27:17.556Z,103300.89
2019-01-08T23:29:46.682Z,103305.95
2019-01-08T23:32:15.903Z,103299.08
2019-01-08T23:34:44.966Z,103296.88
2019-01-08T23:37:14.111Z,103296.22
2019-01-08T23:39:43.382Z,103288.48
2019-01-08T23:42:12.538Z,103296.14
2019-01-08T23:44:42.546Z,103300.73
2019-01-08T23:47:11.673Z,103307.89
2019-01-08T23:49:40.771Z,103305.88
2019-01-08T23:52:17.253Z,103309.94
2019-01-08T23:54:46.398Z,103310.31
2019-01-08T23:57:15.885Z,103305.60
2019-01-08T23:59:44.984Z,103307.97
